createdAt,value
2017-10-31T00:00:21.604Z,101499
2017-10-31T00:01:21.796Z,101500
2017-10-31T00:02:22.275Z,101503
2017-10-31T00:03:21.865Z,101502
2017-10-31T00:04:21.820Z,101503
2017-10-31T00:05:22.410Z,101502
2017-10-31T00:06:21.906Z,101503
2017-10-31T00:07:22.535Z,101501
2017-10-31T00:08:22.035Z,101498
2017-10-31T00:09:22.582Z,101500
2017-10-31T00:10:22.195Z,101498
2017-10-31T00:11:22.265Z,101502
2017-10-31T00:12:22.691Z,101501
2017-10-31T00:13:22.722Z,101500
2017-10-31T00:14:22.225Z,101500
2017-10-31T00:15:22.413Z,101500
2017-10-31T00:16:22.442Z,101500
2017-10-31T00:17:22.909Z,101498
2017-10-31T00:18:22.559Z,101499
2017-10-31T00:19:22.647Z,101491
2017-10-31T00:20:22.633Z,101495
2017-10-31T00:21:22.823Z,101489
2017-10-31T00:22:23.457Z,101492
2017-10-31T00:23:23.000Z,101486
2017-10-31T00:24:23.539Z,101485
2017-10-31T00:25:23.589Z,101492
2017-10-31T00:26:23.553Z,101483
2017-10-31T00:27:23.083Z,101481
2017-10-31T00:28:23.211Z,101490
2017-10-31T00:29:23.698Z,101488
2017-10-31T00:30:23.229Z,101484
2017-10-31T00:31:23.831Z,101489
2017-10-31T00:32:23.965Z,101483
2017-10-31T00:33:23.915Z,101486
2017-10-31T00:34:23.460Z,101486
2017-10-31T00:35:23.460Z,101485
2017-10-31T00:36:23.472Z,101486
2017-10-31T00:37:23.668Z,101488
2017-10-31T00:38:24.263Z,101488
2017-10-31T00:39:24.328Z,101486
2017-10-31T00:40:24.345Z,101485
2017-10-31T00:41:24.280Z,101487
2017-10-31T00:42:23.793Z,101484
2017-10-31T00:43:23.852Z,101481
2017-10-31T00:44:24.462Z,101479
2017-10-31T00:45:24.063Z,101480
2017-10-31T00:46:24.606Z,101479
2017-10-31T00:47:24.560Z,101479
2017-10-31T00:48:24.247Z,101486
2017-10-31T00:49:24.144Z,101485
2017-10-31T00:50:24.700Z,101489
2017-10-31T00:51:24.832Z,101487
2017-10-31T00:52:24.363Z,101488
2017-10-31T00:53:24.852Z,101485
2017-10-31T00:54:25.019Z,101484
2017-10-31T00:55:24.387Z,101485
2017-10-31T00:56:25.121Z,101484
2017-10-31T00:57:25.177Z,101482
2017-10-31T00:58:24.608Z,101482
2017-10-31T00:59:25.213Z,101478
2017-10-31T01:00:25.378Z,101475
2017-10-31T01:01:24.881Z,101475
2017-10-31T01:02:24.827Z,101477
2017-10-31T01:03:25.432Z,101477
2017-10-31T01:04:24.937Z,101487
2017-10-31T01:05:25.107Z,101478
2017-10-31T01:06:25.638Z,101484
2017-10-31T01:07:25.151Z,101477
2017-10-31T01:08:25.751Z,101488
2017-10-31T01:09:25.327Z,101488
2017-10-31T01:10:25.358Z,101483
2017-10-31T01:11:25.936Z,101486
2017-10-31T01:12:25.981Z,101478
2017-10-31T01:13:25.353Z,101480
2017-10-31T01:14:25.921Z,101478
2017-10-31T01:15:25.718Z,101475
2017-10-31T01:16:26.146Z,101476
2017-10-31T01:17:26.079Z,101476
2017-10-31T01:18:26.248Z,101471
2017-10-31T01:19:26.170Z,101471
2017-10-31T01:20:26.197Z,101476
2017-10-31T01:21:25.845Z,101481
2017-10-31T01:22:26.359Z,101480
2017-10-31T01:23:26.364Z,101479
2017-10-31T01:24:26.484Z,101476
2017-10-31T01:25:25.957Z,101480
2017-10-31T01:26:25.896Z,101475
2017-10-31T01:27:26.043Z,101477
2017-10-31T01:28:26.619Z,101475
2017-10-31T01:29:25.985Z,101477
2017-10-31T01:30:26.003Z,101474
2017-10-31T01:31:26.598Z,101474
2017-10-31T01:32:26.608Z,101465
2017-10-31T01:33:26.670Z,101465
2017-10-31T01:34:26.683Z,101469
2017-10-31T01:35:26.707Z,101466
2017-10-31T01:36:26.760Z,101459
2017-10-31T01:37:26.924Z,101464
2017-10-31T01:38:26.897Z,101464
2017-10-31T01:39:26.302Z,101461
2017-10-31T01:40:26.921Z,101459
2017-10-31T01:41:26.928Z,101457
2017-10-31T01:42:27.068Z,101458
2017-10-31T01:43:27.161Z,101458
2017-10-31T01:44:27.074Z,101459
2017-10-31T01:45:26.552Z,101454
2017-10-31T01:46:27.085Z,101460
2017-10-31T01:47:26.673Z,101455
2017-10-31T01:48:26.578Z,101458
2017-10-31T01:49:27.130Z,101462
2017-10-31T01:50:27.163Z,101462
2017-10-31T01:51:27.182Z,101459
2017-10-31T01:52:27.345Z,101455
2017-10-31T01:53:26.718Z,101457
2017-10-31T01:54:26.875Z,101457
2017-10-31T01:55:26.949Z,101455
2017-10-31T01:56:27.031Z,101454
2017-10-31T01:57:27.023Z,101456
2017-10-31T01:58:27.096Z,101454
2017-10-31T01:59:27.084Z,101446
2017-10-31T02:00:28.192Z,101445
2017-10-31T02:01:27.810Z,101450
2017-10-31T02:02:27.858Z,101447
2017-10-31T02:03:27.352Z,101451
2017-10-31T02:04:27.868Z,101449
2017-10-31T02:05:28.053Z,101447
2017-10-31T02:06:28.011Z,101443
2017-10-31T02:07:27.686Z,101449
2017-10-31T02:08:27.651Z,101447
2017-10-31T02:09:27.695Z,101450
2017-10-31T02:10:27.865Z,101446
2017-10-31T02:11:28.361Z,101442
2017-10-31T02:12:28.493Z,101444
2017-10-31T02:13:27.981Z,101445
2017-10-31T02:14:28.552Z,101444
2017-10-31T02:15:28.000Z,101440
2017-10-31T02:16:28.689Z,101445
2017-10-31T02:17:28.203Z,101439
2017-10-31T02:18:28.161Z,101445
2017-10-31T02:19:28.158Z,101445
2017-10-31T02:20:28.852Z,101445
2017-10-31T02:21:28.932Z,101449
2017-10-31T02:22:28.966Z,101440
2017-10-31T02:23:28.914Z,101445
2017-10-31T02:24:28.452Z,101456
2017-10-31T02:25:29.077Z,101456
2017-10-31T02:26:28.573Z,101455
2017-10-31T02:27:28.520Z,101457
2017-10-31T02:28:28.615Z,101461
2017-10-31T02:29:29.326Z,101463
2017-10-31T02:30:28.739Z,101458
2017-10-31T02:31:28.874Z,101458
2017-10-31T02:32:29.475Z,101457
2017-10-31T02:33:28.830Z,101459
2017-10-31T02:34:29.372Z,101456
2017-10-31T02:35:29.590Z,101456
2017-10-31T02:36:29.454Z,101458
2017-10-31T02:37:28.935Z,101458
2017-10-31T02:38:29.684Z,101455
2017-10-31T02:39:29.567Z,101455
2017-10-31T02:40:29.197Z,101455
2017-10-31T02:41:29.853Z,101451
2017-10-31T02:42:29.927Z,101453
2017-10-31T02:43:29.477Z,101445
2017-10-31T02:44:29.394Z,101450
2017-10-31T02:45:29.984Z,101447
2017-10-31T02:46:30.125Z,101446
2017-10-31T02:47:29.589Z,101444
2017-10-31T02:48:30.164Z,101442
2017-10-31T02:49:29.664Z,101449
2017-10-31T02:50:29.665Z,101443
2017-10-31T02:51:29.766Z,101443
2017-10-31T02:52:30.397Z,101443
2017-10-31T02:53:30.473Z,101442
2017-10-31T02:54:29.862Z,101444
2017-10-31T02:55:29.875Z,101444
2017-10-31T02:56:29.996Z,101434
2017-10-31T02:57:30.051Z,101433
2017-10-31T02:58:30.039Z,101438
2017-10-31T02:59:30.163Z,101441
2017-10-31T03:00:30.150Z,101438
2017-10-31T03:01:30.264Z,101439
2017-10-31T03:02:30.857Z,101439
2017-10-31T03:03:30.807Z,101440
2017-10-31T03:04:30.987Z,101441
2017-10-31T03:05:30.513Z,101440
2017-10-31T03:06:30.930Z,101437
2017-10-31T03:07:30.499Z,101443
2017-10-31T03:08:31.151Z,101439
2017-10-31T03:09:30.580Z,101430
2017-10-31T03:10:30.660Z,101427
2017-10-31T03:11:31.260Z,101436
2017-10-31T03:12:31.255Z,101426
2017-10-31T03:13:31.406Z,101432
2017-10-31T03:14:31.284Z,101437
2017-10-31T03:15:31.397Z,101435
2017-10-31T03:16:31.481Z,101436
2017-10-31T03:17:31.494Z,101439
2017-10-31T03:18:30.949Z,101436
2017-10-31T03:19:31.100Z,101437
2017-10-31T03:20:31.074Z,101435
2017-10-31T03:21:31.652Z,101434
2017-10-31T03:22:31.250Z,101434
2017-10-31T03:23:31.904Z,101435
2017-10-31T03:24:31.960Z,101433
2017-10-31T03:25:31.457Z,101430
2017-10-31T03:26:32.077Z,101435
2017-10-31T03:27:31.628Z,101436
2017-10-31T03:28:32.268Z,101434
2017-10-31T03:29:32.285Z,101428
2017-10-31T03:30:32.321Z,101426
2017-10-31T03:31:32.204Z,101420
2017-10-31T03:32:31.843Z,101421
2017-10-31T03:33:31.953Z,101422
2017-10-31T03:34:32.538Z,101422
2017-10-31T03:35:31.969Z,101417
2017-10-31T03:36:32.109Z,101425
2017-10-31T03:37:32.605Z,101419
2017-10-31T03:38:32.142Z,101419
2017-10-31T03:39:32.837Z,101414
2017-10-31T03:40:32.358Z,101414
2017-10-31T03:41:32.275Z,101413
2017-10-31T03:42:32.327Z,101413
2017-10-31T03:43:33.061Z,101412
2017-10-31T03:44:33.132Z,101415
2017-10-31T03:45:33.176Z,101416
2017-10-31T03:46:33.227Z,101414
2017-10-31T03:47:32.622Z,101414
2017-10-31T03:48:33.128Z,101420
2017-10-31T03:49:32.654Z,101422
2017-10-31T03:50:32.742Z,101426
2017-10-31T03:51:33.288Z,101423
2017-10-31T03:52:33.398Z,101425
2017-10-31T03:53:32.866Z,101418
2017-10-31T03:54:32.882Z,101421
2017-10-31T03:55:33.409Z,101419
2017-10-31T03:56:32.950Z,101425
2017-10-31T03:57:33.539Z,101416
2017-10-31T03:58:33.678Z,101414
2017-10-31T03:59:33.148Z,101420
2017-10-31T04:00:33.248Z,101414
2017-10-31T04:01:33.842Z,101417
2017-10-31T04:02:33.276Z,101418
2017-10-31T04:03:33.421Z,101414
2017-10-31T04:04:34.000Z,101419
2017-10-31T04:05:33.973Z,101412
2017-10-31T04:06:33.525Z,101418
2017-10-31T04:07:34.147Z,101414
2017-10-31T04:08:33.704Z,101421
2017-10-31T04:09:33.809Z,101420
2017-10-31T04:10:33.882Z,101418
2017-10-31T04:11:34.447Z,101419
2017-10-31T04:12:34.489Z,101418
2017-10-31T04:13:34.536Z,101417
2017-10-31T04:14:34.574Z,101421
2017-10-31T04:15:34.664Z,101418
2017-10-31T04:16:34.179Z,101424
2017-10-31T04:17:34.149Z,101419
2017-10-31T04:18:34.849Z,101421
2017-10-31T04:19:34.320Z,101422
2017-10-31T04:20:34.812Z,101423
2017-10-31T04:21:34.843Z,101415
2017-10-31T04:22:34.885Z,101411
2017-10-31T04:23:35.082Z,101417
2017-10-31T04:24:34.483Z,101419
2017-10-31T04:25:35.076Z,101423
2017-10-31T04:26:34.703Z,101415
2017-10-31T04:27:35.192Z,101416
2017-10-31T04:28:34.910Z,101425
2017-10-31T04:29:35.394Z,101421
2017-10-31T04:30:35.455Z,101420
2017-10-31T04:31:34.824Z,101416
2017-10-31T04:32:35.513Z,101421
2017-10-31T04:33:34.968Z,101417
2017-10-31T04:34:34.926Z,101412
2017-10-31T04:35:34.983Z,101418
2017-10-31T04:36:35.545Z,101417
2017-10-31T04:37:35.694Z,101415
2017-10-31T04:38:35.752Z,101417
2017-10-31T04:39:35.167Z,101417
2017-10-31T04:40:35.797Z,101418
2017-10-31T04:41:35.283Z,101419
2017-10-31T04:42:35.890Z,101415
2017-10-31T04:43:35.287Z,101416
2017-10-31T04:44:35.899Z,101418
2017-10-31T04:45:35.432Z,101414
2017-10-31T04:46:35.512Z,101417
2017-10-31T04:47:36.225Z,101420
2017-10-31T04:48:36.173Z,101406
2017-10-31T04:49:35.647Z,101417
2017-10-31T04:50:35.701Z,101420
2017-10-31T04:51:36.288Z,101420
2017-10-31T04:52:36.428Z,101422
2017-10-31T04:53:35.808Z,101418
2017-10-31T04:54:36.520Z,101422
2017-10-31T04:55:36.052Z,101421
2017-10-31T04:56:36.658Z,101421
2017-10-31T04:57:36.668Z,101421
2017-10-31T04:58:36.206Z,101421
2017-10-31T04:59:36.862Z,101415
2017-10-31T05:00:36.268Z,101414
2017-10-31T05:01:36.423Z,101403
2017-10-31T05:02:36.396Z,101411
2017-10-31T05:03:36.448Z,101402
2017-10-31T05:04:36.470Z,101404
2017-10-31T05:05:36.571Z,101406
2017-10-31T05:06:37.231Z,101402
2017-10-31T05:07:36.668Z,101401
2017-10-31T05:08:37.245Z,101403
2017-10-31T05:09:37.255Z,101402
2017-10-31T05:10:36.920Z,101402
2017-10-31T05:11:37.519Z,101396
2017-10-31T05:12:37.580Z,101394
2017-10-31T05:13:37.569Z,101393
2017-10-31T05:14:37.548Z,101397
2017-10-31T05:15:37.166Z,101400
2017-10-31T05:16:37.670Z,101399
2017-10-31T05:17:37.690Z,101403
2017-10-31T05:18:37.711Z,101406
2017-10-31T05:19:37.311Z,101399
2017-10-31T05:20:37.310Z,101402
2017-10-31T05:21:37.947Z,101406
2017-10-31T05:22:38.046Z,101409
2017-10-31T05:23:37.415Z,101402
2017-10-31T05:24:38.126Z,101400
2017-10-31T05:25:37.605Z,101403
2017-10-31T05:26:38.135Z,101406
2017-10-31T05:27:37.610Z,101406
2017-10-31T05:28:37.780Z,101407
2017-10-31T05:29:38.286Z,101396
2017-10-31T05:30:37.806Z,101400
2017-10-31T05:31:37.914Z,101404
2017-10-31T05:32:37.936Z,101401
2017-10-31T05:33:37.960Z,101400
2017-10-31T05:34:38.551Z,101395
2017-10-31T05:35:38.162Z,101398
2017-10-31T05:36:38.610Z,101399
2017-10-31T05:37:38.635Z,101400
2017-10-31T05:38:38.781Z,101399
2017-10-31T05:39:38.792Z,101397
2017-10-31T05:40:38.723Z,101398
2017-10-31T05:41:38.788Z,101390
2017-10-31T05:42:38.399Z,101398
2017-10-31T05:43:38.944Z,101403
2017-10-31T05:44:38.574Z,101399
2017-10-31T05:45:39.167Z,101403
2017-10-31T05:46:39.199Z,101405
2017-10-31T05:47:38.644Z,101405
2017-10-31T05:48:38.587Z,101402
2017-10-31T05:49:38.686Z,101397
2017-10-31T05:50:39.263Z,101397
2017-10-31T05:51:39.353Z,101406
2017-10-31T05:52:38.874Z,101406
2017-10-31T05:53:39.343Z,101408
2017-10-31T05:54:39.446Z,101402
2017-10-31T05:55:39.530Z,101402
2017-10-31T05:56:39.495Z,101405
2017-10-31T05:57:38.986Z,101400
2017-10-31T05:58:39.594Z,101405
2017-10-31T05:59:39.115Z,101402
2017-10-31T06:00:39.704Z,101404
2017-10-31T06:01:39.209Z,101405
2017-10-31T06:02:39.773Z,101397
2017-10-31T06:03:39.835Z,101396
2017-10-31T06:04:39.875Z,101403
2017-10-31T06:05:39.394Z,101398
2017-10-31T06:06:39.421Z,101402
2017-10-31T06:07:39.499Z,101404
2017-10-31T06:08:40.100Z,101399
2017-10-31T06:09:39.703Z,101405
2017-10-31T06:10:39.670Z,101404
2017-10-31T06:11:39.820Z,101401
2017-10-31T06:12:40.392Z,101400
2017-10-31T06:13:40.470Z,101402
2017-10-31T06:14:39.992Z,101398
2017-10-31T06:15:39.976Z,101403
2017-10-31T06:16:40.726Z,101405
2017-10-31T06:17:40.261Z,101401
2017-10-31T06:18:40.726Z,101404
2017-10-31T06:19:40.265Z,101394
2017-10-31T06:21:41.054Z,101400
2017-10-31T06:22:41.057Z,101401
2017-10-31T06:23:40.526Z,101397
2017-10-31T06:24:40.536Z,101401
2017-10-31T06:25:40.582Z,101404
2017-10-31T06:26:41.166Z,101399
2017-10-31T06:27:40.682Z,101400
2017-10-31T06:28:41.303Z,101401
2017-10-31T06:29:40.793Z,101398
2017-10-31T06:30:40.832Z,101401
2017-10-31T06:31:40.791Z,101405
2017-10-31T06:32:40.956Z,101404
2017-10-31T06:33:41.578Z,101402
2017-10-31T06:34:41.663Z,101405
2017-10-31T06:35:41.130Z,101408
2017-10-31T06:36:41.621Z,101408
2017-10-31T06:37:41.128Z,101412
2017-10-31T06:39:41.385Z,101408
2017-10-31T06:40:42.003Z,101411
2017-10-31T06:41:41.902Z,101414
2017-10-31T06:42:41.941Z,101410
2017-10-31T06:43:41.986Z,101411
2017-10-31T06:44:42.130Z,101415
2017-10-31T06:45:41.639Z,101412
2017-10-31T06:46:41.708Z,101415
2017-10-31T06:47:42.229Z,101414
2017-10-31T06:48:42.434Z,101413
2017-10-31T06:49:41.831Z,101413
2017-10-31T06:50:42.357Z,101411
2017-10-31T06:51:42.524Z,101414
2017-10-31T06:52:41.897Z,101416
2017-10-31T06:53:42.503Z,101414
2017-10-31T06:54:42.052Z,101416
2017-10-31T06:55:42.134Z,101416
2017-10-31T06:56:42.672Z,101415
2017-10-31T06:57:42.804Z,101418
2017-10-31T06:58:42.854Z,101415
2017-10-31T06:59:42.883Z,101417
2017-10-31T07:00:42.799Z,101414
2017-10-31T07:01:42.933Z,101413
2017-10-31T07:02:43.006Z,101416
2017-10-31T07:03:42.497Z,101419
2017-10-31T07:04:42.587Z,101420
2017-10-31T07:05:42.684Z,101418
2017-10-31T07:06:43.159Z,101413
2017-10-31T07:07:43.326Z,101416
2017-10-31T07:08:43.358Z,101418
2017-10-31T07:09:42.739Z,101419
2017-10-31T07:10:42.782Z,101421
2017-10-31T07:11:42.904Z,101420
2017-10-31T07:12:43.398Z,101418
2017-10-31T07:13:42.964Z,101416
2017-10-31T07:14:43.580Z,101418
2017-10-31T07:15:43.564Z,101419
2017-10-31T07:16:43.042Z,101418
2017-10-31T07:17:43.226Z,101418
2017-10-31T07:18:43.182Z,101419
2017-10-31T07:19:43.794Z,101421
2017-10-31T07:20:43.205Z,101417
2017-10-31T07:21:43.933Z,101413
2017-10-31T07:22:43.945Z,101407
2017-10-31T07:23:43.495Z,101415
2017-10-31T07:24:44.063Z,101416
2017-10-31T07:25:44.014Z,101413
2017-10-31T07:26:43.616Z,101416
2017-10-31T07:27:43.603Z,101419
2017-10-31T07:28:44.194Z,101420
2017-10-31T07:29:43.767Z,101417
2017-10-31T07:30:44.368Z,101423
2017-10-31T07:31:44.258Z,101416
2017-10-31T07:32:44.430Z,101420
2017-10-31T07:33:44.345Z,101426
2017-10-31T07:34:43.846Z,101424
2017-10-31T07:35:43.893Z,101424
2017-10-31T07:36:43.887Z,101426
2017-10-31T07:37:43.942Z,101429
2017-10-31T07:38:44.618Z,101427
2017-10-31T07:39:44.594Z,101428
2017-10-31T07:40:44.649Z,101429
2017-10-31T07:41:44.314Z,101425
2017-10-31T07:42:44.910Z,101427
2017-10-31T07:43:44.867Z,101426
2017-10-31T07:44:44.963Z,101425
2017-10-31T07:45:44.545Z,101426
2017-10-31T07:46:45.063Z,101425
2017-10-31T07:47:44.686Z,101420
2017-10-31T07:48:44.724Z,101422
2017-10-31T07:49:45.310Z,101422
2017-10-31T07:50:44.755Z,101418
2017-10-31T07:51:45.401Z,101421
2017-10-31T07:52:45.449Z,101423
2017-10-31T07:53:45.485Z,101423
2017-10-31T07:54:44.990Z,101424
2017-10-31T07:55:45.560Z,101426
2017-10-31T07:56:44.955Z,101429
2017-10-31T07:57:45.519Z,101429
2017-10-31T07:58:45.108Z,101430
2017-10-31T07:59:45.181Z,101428
2017-10-31T08:00:45.815Z,101430
2017-10-31T08:01:45.875Z,101430
2017-10-31T08:02:45.936Z,101426
2017-10-31T08:03:45.908Z,101417
2017-10-31T08:04:45.915Z,101423
2017-10-31T08:05:45.927Z,101426
2017-10-31T08:06:45.944Z,101419
2017-10-31T08:07:46.108Z,101420
2017-10-31T08:08:46.127Z,101420
2017-10-31T08:09:45.665Z,101414
2017-10-31T08:10:46.160Z,101421
2017-10-31T08:11:45.739Z,101414
2017-10-31T08:12:45.820Z,101408
2017-10-31T08:13:45.824Z,101421
2017-10-31T08:14:45.974Z,101420
2017-10-31T08:15:46.038Z,101419
2017-10-31T08:16:46.127Z,101418
2017-10-31T08:17:46.671Z,101420
2017-10-31T08:18:46.753Z,101423
2017-10-31T08:19:46.249Z,101420
2017-10-31T08:20:46.264Z,101416
2017-10-31T08:21:46.883Z,101420
2017-10-31T08:22:46.871Z,101419
2017-10-31T08:23:46.348Z,101424
2017-10-31T08:24:46.984Z,101417
2017-10-31T08:25:46.546Z,101413
2017-10-31T08:26:47.258Z,101413
2017-10-31T08:27:47.279Z,101418
2017-10-31T08:28:47.211Z,101418
2017-10-31T08:29:46.708Z,101416
2017-10-31T08:30:46.794Z,101409
2017-10-31T08:31:46.860Z,101413
2017-10-31T08:32:47.583Z,101411
2017-10-31T08:33:47.035Z,101417
2017-10-31T08:34:47.560Z,101419
2017-10-31T08:35:47.104Z,101423
2017-10-31T08:36:47.672Z,101423
2017-10-31T08:37:47.095Z,101417
2017-10-31T08:38:47.175Z,101422
2017-10-31T08:39:47.911Z,101419
2017-10-31T08:40:47.421Z,101424
2017-10-31T08:41:47.899Z,101426
2017-10-31T08:42:47.978Z,101424
2017-10-31T08:43:47.566Z,101424
2017-10-31T08:44:47.657Z,101426
2017-10-31T08:45:47.751Z,101421
2017-10-31T08:46:48.335Z,101420
2017-10-31T08:47:47.835Z,101416
2017-10-31T08:48:47.853Z,101422
2017-10-31T08:49:47.941Z,101415
2017-10-31T08:50:47.970Z,101418
2017-10-31T08:51:48.579Z,101416
2017-10-31T08:52:48.517Z,101414
2017-10-31T08:53:48.008Z,101412
2017-10-31T08:54:48.079Z,101414
2017-10-31T08:55:48.738Z,101413
2017-10-31T08:56:48.175Z,101410
2017-10-31T08:57:48.778Z,101411
2017-10-31T08:58:48.329Z,101407
2017-10-31T08:59:48.495Z,101412
2017-10-31T09:00:48.496Z,101412
2017-10-31T09:01:48.667Z,101409
2017-10-31T09:02:49.157Z,101414
2017-10-31T09:03:48.692Z,101414
2017-10-31T09:04:49.320Z,101410
2017-10-31T09:05:49.515Z,101412
2017-10-31T09:06:49.051Z,101412
2017-10-31T09:07:49.104Z,101402
2017-10-31T09:08:49.127Z,101409
2017-10-31T09:09:49.720Z,101413
2017-10-31T09:10:49.211Z,101412
2017-10-31T09:11:49.803Z,101411
2017-10-31T09:12:49.207Z,101413
2017-10-31T09:13:49.293Z,101413
2017-10-31T09:14:49.440Z,101414
2017-10-31T09:15:49.442Z,101416
2017-10-31T09:16:49.506Z,101418
2017-10-31T09:17:50.109Z,101421
2017-10-31T09:18:49.682Z,101413
2017-10-31T09:19:49.620Z,101416
2017-10-31T09:20:49.663Z,101418
2017-10-31T09:21:50.398Z,101416
2017-10-31T09:22:49.852Z,101423
2017-10-31T09:23:50.458Z,101417
2017-10-31T09:24:50.024Z,101421
2017-10-31T09:25:50.650Z,101418
2017-10-31T09:26:50.660Z,101420
2017-10-31T09:27:50.567Z,101416
2017-10-31T09:28:50.682Z,101410
2017-10-31T09:29:50.720Z,101407
2017-10-31T09:30:50.208Z,101417
2017-10-31T09:31:50.210Z,101417
2017-10-31T09:32:50.295Z,101415
2017-10-31T09:33:50.294Z,101414
2017-10-31T09:34:50.896Z,101416
2017-10-31T09:35:50.939Z,101409
2017-10-31T09:36:50.517Z,101415
2017-10-31T09:37:51.033Z,101412
2017-10-31T09:38:51.115Z,101402
2017-10-31T09:39:51.155Z,101410
2017-10-31T09:40:50.758Z,101407
2017-10-31T09:41:50.851Z,101405
2017-10-31T09:42:51.434Z,101398
2017-10-31T09:43:50.890Z,101402
2017-10-31T09:44:51.080Z,101399
2017-10-31T09:45:50.982Z,101400
2017-10-31T09:46:51.571Z,101391
2017-10-31T09:47:51.696Z,101406
2017-10-31T09:48:51.642Z,101399
2017-10-31T09:49:51.672Z,101399
2017-10-31T09:50:51.189Z,101401
2017-10-31T09:51:51.362Z,101401
2017-10-31T09:52:51.427Z,101402
2017-10-31T09:53:51.459Z,101403
2017-10-31T09:54:51.496Z,101402
2017-10-31T09:55:51.478Z,101398
2017-10-31T09:56:52.156Z,101395
2017-10-31T09:57:52.123Z,101389
2017-10-31T09:58:52.243Z,101389
2017-10-31T09:59:52.322Z,101397
2017-10-31T10:00:51.735Z,101394
2017-10-31T10:01:52.347Z,101390
2017-10-31T10:02:52.375Z,101396
2017-10-31T10:03:52.555Z,101397
2017-10-31T10:04:51.994Z,101395
2017-10-31T10:05:52.441Z,101399
2017-10-31T10:06:52.599Z,101397
2017-10-31T10:07:52.008Z,101400
2017-10-31T10:08:52.189Z,101398
2017-10-31T10:09:52.162Z,101401
2017-10-31T10:10:52.845Z,101401
2017-10-31T10:11:52.279Z,101401
2017-10-31T10:12:52.867Z,101403
2017-10-31T10:13:52.966Z,101404
2017-10-31T10:14:52.881Z,101406
2017-10-31T10:15:52.950Z,101404
2017-10-31T10:16:53.021Z,101404
2017-10-31T10:17:53.083Z,101400
2017-10-31T10:18:53.181Z,101398
2017-10-31T10:19:52.673Z,101393
2017-10-31T10:20:52.659Z,101395
2017-10-31T10:21:53.309Z,101392
2017-10-31T10:22:52.766Z,101386
2017-10-31T10:23:52.881Z,101392
2017-10-31T10:24:52.867Z,101395
2017-10-31T10:25:52.936Z,101387
2017-10-31T10:26:53.642Z,101391
2017-10-31T10:27:53.089Z,101390
2017-10-31T10:28:53.612Z,101384
2017-10-31T10:29:53.714Z,101388
2017-10-31T10:30:53.285Z,101379
2017-10-31T10:31:53.302Z,101387
2017-10-31T10:32:53.366Z,101383
2017-10-31T10:33:53.448Z,101383
2017-10-31T10:34:53.399Z,101379
2017-10-31T10:35:53.511Z,101384
2017-10-31T10:36:53.456Z,101382
2017-10-31T10:37:54.196Z,101381
2017-10-31T10:38:53.742Z,101380
2017-10-31T10:39:54.348Z,101380
2017-10-31T10:40:53.867Z,101380
2017-10-31T10:41:53.912Z,101376
2017-10-31T10:42:54.530Z,101377
2017-10-31T10:43:53.913Z,101378
2017-10-31T10:44:53.979Z,101377
2017-10-31T10:45:54.713Z,101374
2017-10-31T10:46:54.754Z,101374
2017-10-31T10:47:54.794Z,101380
2017-10-31T10:48:54.703Z,101378
2017-10-31T10:49:54.897Z,101381
2017-10-31T10:50:54.951Z,101378
2017-10-31T10:51:55.023Z,101375
2017-10-31T10:52:54.437Z,101373
2017-10-31T10:53:54.557Z,101372
2017-10-31T10:54:55.119Z,101368
2017-10-31T10:55:55.167Z,101372
2017-10-31T10:56:54.516Z,101368
2017-10-31T10:57:54.514Z,101365
2017-10-31T10:58:54.555Z,101360
2017-10-31T10:59:54.558Z,101358
2017-10-31T11:00:55.143Z,101366
2017-10-31T11:01:54.781Z,101364
2017-10-31T11:02:54.727Z,101359
2017-10-31T11:03:55.364Z,101364
2017-10-31T11:04:54.814Z,101363
2017-10-31T11:05:55.377Z,101363
2017-10-31T11:06:55.429Z,101363
2017-10-31T11:07:54.981Z,101358
2017-10-31T11:08:55.446Z,101355
2017-10-31T11:09:55.491Z,101356
2017-10-31T11:10:55.154Z,101349
2017-10-31T11:11:55.127Z,101354
2017-10-31T11:12:55.314Z,101348
2017-10-31T11:13:55.765Z,101340
2017-10-31T11:14:55.865Z,101346
2017-10-31T11:15:55.959Z,101351
2017-10-31T11:16:55.481Z,101344
2017-10-31T11:17:55.435Z,101342
2017-10-31T11:18:56.021Z,101344
2017-10-31T11:19:55.660Z,101343
2017-10-31T11:20:55.663Z,101342
2017-10-31T11:21:55.840Z,101343
2017-10-31T11:22:55.878Z,101338
2017-10-31T11:23:56.006Z,101333
2017-10-31T11:24:56.530Z,101333
2017-10-31T11:25:55.987Z,101333
2017-10-31T11:26:56.669Z,101325
2017-10-31T11:27:56.193Z,101329
2017-10-31T11:28:56.708Z,101335
2017-10-31T11:29:56.763Z,101332
2017-10-31T11:30:56.352Z,101337
2017-10-31T11:31:56.827Z,101336
2017-10-31T11:32:56.882Z,101338
2017-10-31T11:33:56.434Z,101331
2017-10-31T11:34:57.172Z,101335
2017-10-31T11:35:56.712Z,101335
2017-10-31T11:36:57.221Z,101332
2017-10-31T11:37:57.305Z,101328
2017-10-31T11:38:57.419Z,101331
2017-10-31T11:39:56.835Z,101333
2017-10-31T11:40:57.551Z,101330
2017-10-31T11:41:57.535Z,101333
2017-10-31T11:42:57.069Z,101329
2017-10-31T11:43:57.063Z,101323
2017-10-31T11:44:57.127Z,101325
2017-10-31T11:45:57.146Z,101320
2017-10-31T11:46:57.744Z,101327
2017-10-31T11:47:57.244Z,101318
2017-10-31T11:48:57.839Z,101322
2017-10-31T11:49:57.353Z,101315
2017-10-31T11:50:58.012Z,101324
2017-10-31T11:51:57.414Z,101321
2017-10-31T11:52:57.947Z,101320
2017-10-31T11:53:57.975Z,101320
2017-10-31T11:54:58.057Z,101317
2017-10-31T11:55:57.691Z,101319
2017-10-31T11:56:58.183Z,101316
2017-10-31T11:57:58.355Z,101315
2017-10-31T11:58:57.763Z,101317
2017-10-31T11:59:58.435Z,101316
2017-10-31T12:00:57.982Z,101308
2017-10-31T12:01:58.586Z,101311
2017-10-31T12:02:58.041Z,101299
2017-10-31T12:03:58.056Z,101303
2017-10-31T12:04:58.228Z,101305
2017-10-31T12:05:58.867Z,101297
2017-10-31T12:06:58.385Z,101303
2017-10-31T12:07:58.347Z,101301
2017-10-31T12:08:58.904Z,101298
2017-10-31T12:09:58.412Z,101298
2017-10-31T12:10:58.513Z,101291
2017-10-31T12:11:58.598Z,101293
2017-10-31T12:12:58.591Z,101297
2017-10-31T12:13:58.779Z,101300
2017-10-31T12:14:58.755Z,101303
2017-10-31T12:15:58.774Z,101298
2017-10-31T12:16:59.429Z,101290
2017-10-31T12:17:59.404Z,101295
2017-10-31T12:18:59.444Z,101300
2017-10-31T12:19:59.492Z,101296
2017-10-31T12:20:59.587Z,101293
2017-10-31T12:21:59.182Z,101291
2017-10-31T12:22:59.263Z,101295
2017-10-31T12:23:59.708Z,101290
2017-10-31T12:24:59.851Z,101295
2017-10-31T12:25:59.347Z,101295
2017-10-31T12:26:59.900Z,101290
2017-10-31T12:27:59.439Z,101291
2017-10-31T12:29:00.081Z,101281
2017-10-31T12:29:59.491Z,101287
2017-10-31T12:31:00.198Z,101295